createdAt,value
2022-12-04T00:01:11.984Z,100975.50
2022-12-04T00:03:40.710Z,100963.97
2022-12-04T00:06:11.330Z,100960.44
2022-12-04T00:08:40.436Z,100959.56
2022-12-04T00:11:10.102Z,100963.09
2022-12-04T00:13:39.546Z,100970.34
2022-12-04T00:16:12.086Z,100969.47
2022-12-04T00:18:40.919Z,100963.44
2022-12-04T00:21:13.298Z,100974.81
2022-12-04T00:23:41.786Z,100965.06
2022-12-04T00:26:11.552Z,100967.75
2022-12-04T00:28:40.719Z,100973.00
2022-12-04T00:31:11.435Z,100974.81
2022-12-04T00:33:39.794Z,100978.41
2022-12-04T00:36:10.947Z,100977.41
2022-12-04T00:38:40.143Z,100994.28
2022-12-04T00:41:12.541Z,100981.88
2022-12-04T00:43:40.857Z,100978.41
2022-12-04T00:46:10.683Z,100966.88
2022-12-04T00:48:39.504Z,100968.69
2022-12-04T00:51:09.823Z,100961.69
2022-12-04T00:53:38.102Z,100975.88
2022-12-04T00:56:07.778Z,100975.88
2022-12-04T00:58:36.157Z,100971.50
2022-12-04T01:01:06.337Z,100970.53
2022-12-04T01:03:36.221Z,100969.69
2022-12-04T01:06:05.442Z,100968.91
2022-12-04T01:08:34.427Z,100965.28
2022-12-04T01:11:07.081Z,100976.91
2022-12-04T01:13:35.587Z,100981.38
2022-12-04T01:16:04.043Z,100971.66
2022-12-04T01:18:32.238Z,100968.13
2022-12-04T01:21:01.699Z,100970.78
2022-12-04T01:23:29.801Z,100968.19
2022-12-04T01:25:59.631Z,100972.59
2022-12-04T01:28:28.181Z,100970.88
2022-12-04T01:31:01.493Z,100981.53
2022-12-04T01:33:29.934Z,100977.16
2022-12-04T01:35:59.953Z,100976.28
2022-12-04T01:38:30.351Z,100974.56
2022-12-04T01:40:59.233Z,100971.03
2022-12-04T01:43:29.998Z,100970.13
2022-12-04T01:45:59.204Z,100966.59
2022-12-04T01:48:30.982Z,100979.94
2022-12-04T01:51:06.582Z,100979.09
2022-12-04T01:53:38.627Z,100975.56
2022-12-04T01:56:08.590Z,100976.41
2022-12-04T01:58:41.313Z,100976.41
2022-12-04T02:01:10.210Z,100974.69
2022-12-04T02:03:39.305Z,100963.16
2022-12-04T02:06:08.232Z,100964.97
2022-12-04T02:08:38.803Z,100964.97
2022-12-04T02:11:19.085Z,100961.44
2022-12-04T02:13:56.493Z,100967.72
2022-12-04T02:16:30.009Z,100957.03
2022-12-04T02:19:05.939Z,100957.91
2022-12-04T02:21:38.962Z,100959.72
2022-12-04T02:24:30.676Z,100957.97
2022-12-04T02:27:03.889Z,100962.47
2022-12-04T02:29:41.369Z,100961.59
2022-12-04T02:32:18.700Z,100959.88
2022-12-04T02:34:53.952Z,100962.47
2022-12-04T02:37:29.789Z,100956.25
2022-12-04T02:40:05.764Z,100951.78
2022-12-04T02:42:41.978Z,100957.13
2022-12-04T02:45:15.382Z,100968.81
2022-12-04T02:47:45.373Z,100958.16
2022-12-04T02:50:16.276Z,100962.63
2022-12-04T02:52:49.417Z,100967.94
2022-12-04T02:55:20.616Z,100962.63
2022-12-04T02:57:54.915Z,100963.47
2022-12-04T03:00:24.618Z,100951.94
2022-12-04T03:02:58.015Z,100951.06
2022-12-04T03:05:31.568Z,100954.63
2022-12-04T03:08:05.166Z,100952.94
2022-12-04T03:10:37.587Z,100944.94
2022-12-04T03:13:09.685Z,100946.75
2022-12-04T03:15:45.477Z,100942.34
2022-12-04T03:18:17.892Z,100948.53
2022-12-04T03:20:49.250Z,100946.81
2022-12-04T03:23:21.775Z,100948.63
2022-12-04T03:25:57.387Z,100945.09
2022-12-04T03:28:32.849Z,100946.91
2022-12-04T03:31:08.285Z,100952.31
2022-12-04T03:33:42.465Z,100955.75
2022-12-04T03:36:17.707Z,100946.03
2022-12-04T03:38:52.584Z,100955.84
2022-12-04T03:41:27.221Z,100949.66
2022-12-04T03:44:00.136Z,100943.44
2022-12-04T03:46:33.327Z,100953.25
2022-12-04T03:49:09.352Z,100947.91
2022-12-04T03:51:41.851Z,100948.88
2022-12-04T03:54:15.745Z,100949.94
2022-12-04T03:56:48.922Z,100964.22
2022-12-04T03:59:22.138Z,100960.69
2022-12-04T04:01:53.017Z,100960.75
2022-12-04T04:04:28.333Z,100958.09
2022-12-04T04:07:00.571Z,100953.69
2022-12-04T04:09:36.325Z,100956.28
2022-12-04T04:12:08.900Z,100953.63
2022-12-04T04:15:01.171Z,100955.44
2022-12-04T04:17:53.168Z,100959.13
2022-12-04T04:20:42.824Z,100955.56
2022-12-04T04:23:30.174Z,100952.88
2022-12-04T04:26:01.928Z,100960.88
2022-12-04T04:28:35.747Z,100963.56
2022-12-04T04:31:09.730Z,100953.97
2022-12-04T04:33:47.050Z,100956.50
2022-12-04T04:36:22.647Z,100966.28
2022-12-04T04:38:57.697Z,100964.50
2022-12-04T04:41:33.547Z,100961.03
2022-12-04T04:44:10.328Z,100958.38
2022-12-04T04:46:42.505Z,100961.91
2022-12-04T04:49:14.717Z,100955.72
2022-12-04T04:51:44.473Z,100959.31
2022-12-04T04:54:15.823Z,100956.66
2022-12-04T04:56:45.989Z,100955.78
2022-12-04T04:59:14.783Z,100958.53
2022-12-04T05:01:46.042Z,100962.94
2022-12-04T05:04:15.791Z,100956.72
2022-12-04T05:06:44.230Z,100958.63
2022-12-04T05:09:12.366Z,100970.16
2022-12-04T05:11:40.541Z,100958.63
2022-12-04T05:14:09.631Z,100963.09
2022-12-04T05:16:37.974Z,100957.75
2022-12-04T05:19:23.497Z,100953.31
2022-12-04T05:21:52.906Z,100954.22
2022-12-04T05:24:20.976Z,100954.28
2022-12-04T05:26:49.034Z,100964.06
2022-12-04T05:29:17.463Z,100953.47
2022-12-04T05:31:46.125Z,100958.81
2022-12-04T05:34:14.161Z,100959.69
2022-12-04T05:36:42.609Z,100957.88
2022-12-04T05:39:12.355Z,100960.63
2022-12-04T05:41:41.024Z,100950.81
2022-12-04T05:44:09.099Z,100943.75
2022-12-04T05:46:37.277Z,100960.69
2022-12-04T05:49:05.360Z,100945.63
2022-12-04T05:51:33.846Z,100947.38
2022-12-04T05:54:01.917Z,100945.63
2022-12-04T05:56:31.478Z,100947.38
2022-12-04T05:58:59.924Z,100958.97
2022-12-04T06:01:28.340Z,100961.63
2022-12-04T06:03:56.350Z,100958.97
2022-12-04T06:06:26.711Z,100962.50
2022-12-04T06:08:58.512Z,100953.72
2022-12-04T06:11:28.913Z,100957.25
2022-12-04T06:13:59.810Z,100954.59
2022-12-04T06:16:30.681Z,100959.06
2022-12-04T06:19:01.149Z,100968.84
2022-12-04T06:21:31.779Z,100971.53
2022-12-04T06:23:59.859Z,100979.44
2022-12-04T06:26:28.486Z,100981.31
2022-12-04T06:28:59.998Z,100976.84
2022-12-04T06:31:30.086Z,100966.22
2022-12-04T06:33:59.373Z,100972.47
2022-12-04T06:36:27.902Z,100974.19
2022-12-04T06:38:57.514Z,100973.38
2022-12-04T06:41:27.633Z,100979.59
2022-12-04T06:43:56.455Z,100985.78
2022-12-04T06:46:31.351Z,100975.16
2022-12-04T06:49:01.768Z,100973.38
2022-12-04T06:51:33.964Z,100973.41
2022-12-04T06:54:02.747Z,100975.16
2022-12-04T06:56:33.974Z,100966.28
2022-12-04T06:59:04.045Z,100962.75
2022-12-04T07:01:35.265Z,100957.41
2022-12-04T07:04:04.895Z,100960.91
2022-12-04T07:06:34.476Z,100961.84
2022-12-04T07:09:06.581Z,100968.94
2022-12-04T07:11:35.556Z,100968.94
2022-12-04T07:14:04.326Z,100968.94
2022-12-04T07:16:40.430Z,100968.94
2022-12-04T07:19:09.902Z,100972.56
2022-12-04T07:21:38.020Z,100977.88
2022-12-04T07:24:06.699Z,100978.75
2022-12-04T07:26:35.165Z,100983.16
2022-12-04T07:29:03.302Z,100976.16
2022-12-04T07:31:33.006Z,100979.59
2022-12-04T07:34:01.107Z,100985.84
2022-12-04T07:36:29.219Z,100969.84
2022-12-04T07:38:58.027Z,100982.28
2022-12-04T07:41:26.188Z,100972.50
2022-12-04T07:43:54.923Z,100971.59
2022-12-04T07:46:27.337Z,100968.94
2022-12-04T07:48:58.254Z,100977.88
2022-12-04T07:51:28.628Z,100975.22
2022-12-04T07:54:03.121Z,100979.59
2022-12-04T07:56:31.616Z,100969.84
2022-12-04T07:59:00.574Z,100976.94
2022-12-04T08:01:28.972Z,100976.16
2022-12-04T08:04:00.240Z,100968.94
2022-12-04T08:06:31.441Z,100965.38
2022-12-04T08:09:01.510Z,100968.03
2022-12-04T08:11:32.710Z,100960.03
2022-12-04T08:14:04.777Z,100967.13
2022-12-04T08:16:34.081Z,100970.69
2022-12-04T08:19:03.725Z,100984.94
2022-12-04T08:21:33.454Z,100991.38
2022-12-04T08:24:02.163Z,100984.22
2022-12-04T08:26:32.239Z,100968.94
2022-12-04T08:29:01.531Z,100967.13
2022-12-04T08:31:32.661Z,100965.38
2022-12-04T08:34:05.311Z,100960.91
2022-12-04T08:36:33.599Z,100967.13
2022-12-04T08:39:01.868Z,100965.38
2022-12-04T08:41:30.259Z,100972.47
2022-12-04T08:43:58.928Z,100970.56
2022-12-04T08:46:28.945Z,100974.97
2022-12-04T08:48:57.970Z,100975.75
2022-12-04T08:51:29.152Z,100975.69
2022-12-04T08:53:59.191Z,100972.06
2022-12-04T08:56:28.513Z,100970.28
2022-12-04T08:58:57.595Z,100984.53
2022-12-04T09:01:26.706Z,100981.88
2022-12-04T09:03:55.948Z,100978.28
2022-12-04T09:06:24.346Z,100985.28
2022-12-04T09:08:55.596Z,100975.47
2022-12-04T09:11:25.222Z,100978.94
2022-12-04T09:13:53.882Z,100962.06
2022-12-04T09:16:24.580Z,100973.59
2022-12-04T09:18:53.235Z,100967.25
2022-12-04T09:21:22.602Z,100959.56
2022-12-04T09:23:50.686Z,100962.22
2022-12-04T09:26:23.543Z,100969.28
2022-12-04T09:28:52.550Z,100957.59
2022-12-04T09:31:21.286Z,100956.56
2022-12-04T09:33:49.735Z,100948.50
2022-12-04T09:36:17.896Z,100949.31
2022-12-04T09:38:47.403Z,100942.09
2022-12-04T09:41:30.313Z,100945.53
2022-12-04T09:44:03.050Z,100941.00
2022-12-04T09:46:37.577Z,100935.03
2022-12-04T09:49:11.551Z,100925.84
2022-12-04T09:51:42.094Z,100926.91
2022-12-04T09:54:17.069Z,100923.78
2022-12-04T09:56:53.605Z,100919.22
2022-12-04T09:59:25.524Z,100915.59
2022-12-04T10:02:00.020Z,100921.00
2022-12-04T10:04:30.596Z,100907.66
2022-12-04T10:07:06.060Z,100909.38
2022-12-04T10:09:43.503Z,100908.38
2022-12-04T10:12:24.495Z,100912.53
2022-12-04T10:15:04.437Z,100901.59
2022-12-04T10:17:56.615Z,100897.72
2022-12-04T10:20:48.071Z,100891.28
2022-12-04T10:23:25.759Z,100883.97
2022-12-04T10:25:56.190Z,100887.41
2022-12-04T10:28:32.255Z,100883.72
2022-12-04T10:31:03.466Z,100881.06
2022-12-04T10:33:38.899Z,100881.75
2022-12-04T10:36:08.230Z,100871.66
2022-12-04T10:38:41.390Z,100872.28
2022-12-04T10:41:15.462Z,100868.47
2022-12-04T10:43:47.761Z,100864.75
2022-12-04T10:46:17.378Z,100866.91
2022-12-04T10:48:48.882Z,100857.50
2022-12-04T10:51:20.102Z,100854.38
2022-12-04T10:53:49.458Z,100859.03
2022-12-04T10:56:19.740Z,100846.78
2022-12-04T10:58:59.233Z,100840.97
2022-12-04T11:01:29.065Z,100842.41
2022-12-04T11:04:01.309Z,100833.19
2022-12-04T11:06:30.086Z,100827.44
2022-12-04T11:09:00.122Z,100826.34
2022-12-04T11:11:31.106Z,100818.53
2022-12-04T11:14:06.063Z,100809.84
2022-12-04T11:16:38.889Z,100810.69
2022-12-04T11:19:23.285Z,100795.59
2022-12-04T11:21:52.026Z,100801.91
2022-12-04T11:24:27.391Z,100800.19
2022-12-04T11:26:56.697Z,100802.78
2022-12-04T11:29:33.604Z,100792.91
2022-12-04T11:32:07.439Z,100793.59
2022-12-04T11:34:38.944Z,100792.47
2022-12-04T11:37:18.831Z,100795.81
2022-12-04T11:39:47.609Z,100786.81
2022-12-04T11:42:19.520Z,100796.50
2022-12-04T11:44:55.642Z,100784.94
2022-12-04T11:47:26.521Z,100773.25
2022-12-04T11:50:06.063Z,100775.06
2022-12-04T11:52:46.560Z,100767.78
2022-12-04T11:55:23.833Z,100766.63
2022-12-04T11:58:14.618Z,100763.84
2022-12-04T12:00:53.259Z,100760.31
2022-12-04T12:03:28.112Z,100752.28
2022-12-04T12:06:17.776Z,100749.63
2022-12-04T12:09:02.887Z,100756.72
2022-12-04T12:11:36.793Z,100754.97
2022-12-04T12:14:14.414Z,100751.44
2022-12-04T12:16:57.247Z,100755.81
2022-12-04T12:19:47.677Z,100757.56
2022-12-04T12:22:29.618Z,100757.56
2022-12-04T12:25:07.252Z,100769.03
2022-12-04T12:27:51.080Z,100759.28
2022-12-04T12:30:22.822Z,100761.19
2022-12-04T12:33:05.028Z,100757.66
2022-12-04T12:35:40.247Z,100754.09
2022-12-04T12:38:12.791Z,100759.47
2022-12-04T12:40:43.903Z,100756.78
2022-12-04T12:43:17.445Z,100767.44
2022-12-04T12:45:50.837Z,100765.41
2022-12-04T12:48:29.572Z,100750.38
2022-12-04T12:51:28.622Z,100756.44
2022-12-04T12:53:55.030Z,100755.50
2022-12-04T12:56:32.205Z,100756.44
2022-12-04T12:59:04.877Z,100745.72
2022-12-04T13:01:43.562Z,100744.84
2022-12-04T13:04:17.117Z,100742.09
2022-12-04T13:06:48.158Z,100735.88
2022-12-04T13:09:25.486Z,100742.88
2022-12-04T13:11:58.330Z,100747.25
2022-12-04T13:14:26.424Z,100742.66
2022-12-04T13:17:00.034Z,100746.09
2022-12-04T13:19:34.436Z,100733.56
2022-12-04T13:22:15.608Z,100742.44
2022-12-04T13:24:59.308Z,100740.72
2022-12-04T13:27:39.336Z,100744.38
2022-12-04T13:30:16.467Z,100752.41
2022-12-04T13:33:08.209Z,100755.19
2022-12-04T13:36:00.020Z,100764.28
2022-12-04T13:38:37.375Z,100767.84
2022-12-04T13:41:08.023Z,100759.91
2022-12-04T13:43:38.177Z,100763.53
2022-12-04T13:46:08.264Z,100759.09
2022-12-04T13:48:40.191Z,100759.22
2022-12-04T13:51:24.886Z,100756.44
2022-12-04T13:54:21.334Z,100765.25
2022-12-04T13:56:51.556Z,100757.97
2022-12-04T13:59:34.087Z,100752.63
2022-12-04T14:02:08.189Z,100762.47
2022-12-04T14:04:45.428Z,100767.94
2022-12-04T14:07:27.680Z,100771.63
2022-12-04T14:09:57.920Z,100775.44
2022-12-04T14:12:29.355Z,100779.94
2022-12-04T14:15:00.482Z,100783.38
2022-12-04T14:17:31.667Z,100787.66
2022-12-04T14:20:07.528Z,100786.38
2022-12-04T14:22:45.243Z,100779.16
2022-12-04T14:25:26.980Z,100782.22
2022-12-04T14:27:55.354Z,100779.66
2022-12-04T14:30:25.979Z,100785.00
2022-12-04T14:32:57.541Z,100780.72
2022-12-04T14:35:27.745Z,100788.75
2022-12-04T14:38:00.059Z,100783.56
2022-12-04T14:40:30.663Z,100775.72
2022-12-04T14:43:00.570Z,100774.22
2022-12-04T14:45:38.571Z,100774.41
2022-12-04T14:48:22.663Z,100774.28
2022-12-04T14:50:59.679Z,100773.25
2022-12-04T14:53:40.169Z,100778.69
2022-12-04T14:56:25.531Z,100770.97
2022-12-04T14:58:53.740Z,100771.16
2022-12-04T15:01:29.056Z,100778.41
2022-12-04T15:04:00.558Z,100782.06
2022-12-04T15:06:30.628Z,100791.25
2022-12-04T15:09:15.630Z,100786.00
2022-12-04T15:12:06.627Z,100796.81
2022-12-04T15:14:42.565Z,100795.28
2022-12-04T15:17:11.810Z,100789.91
2022-12-04T15:19:40.543Z,100791.66
2022-12-04T15:22:14.317Z,100791.03
2022-12-04T15:24:43.712Z,100784.69
2022-12-04T15:27:14.071Z,100792.75
2022-12-04T15:29:48.332Z,100789.41
2022-12-04T15:32:19.704Z,100789.78
2022-12-04T15:34:50.382Z,100786.47
2022-12-04T15:37:22.261Z,100785.88
2022-12-04T15:39:52.924Z,100792.41
2022-12-04T15:42:27.857Z,100797.09
2022-12-04T15:45:01.055Z,100797.19
2022-12-04T15:47:31.045Z,100791.25
2022-12-04T15:50:10.462Z,100800.25
2022-12-04T15:52:38.719Z,100804.88
2022-12-04T15:55:10.296Z,100797.00
2022-12-04T15:57:41.218Z,100796.34
2022-12-04T16:00:25.869Z,100798.25
2022-12-04T16:02:54.998Z,100795.00
2022-12-04T16:05:35.523Z,100796.41
2022-12-04T16:08:23.281Z,100797.47
2022-12-04T16:11:01.711Z,100793.19
2022-12-04T16:13:32.490Z,100795.09
2022-12-04T16:16:01.219Z,100800.63
2022-12-04T16:18:30.008Z,100796.34
2022-12-04T16:20:58.295Z,100790.22
2022-12-04T16:23:27.462Z,100795.69
2022-12-04T16:25:55.758Z,100797.66
2022-12-04T16:28:25.451Z,100796.78
2022-12-04T16:30:53.738Z,100791.53
2022-12-04T16:33:22.095Z,100794.31
2022-12-04T16:35:50.458Z,100797.94
2022-12-04T16:38:18.944Z,100799.84
2022-12-04T16:40:48.549Z,100793.81
2022-12-04T16:43:17.815Z,100794.66
2022-12-04T16:45:49.026Z,100799.28
2022-12-04T16:48:17.097Z,100793.06
2022-12-04T16:50:45.777Z,100794.97
2022-12-04T16:53:17.960Z,100794.13
2022-12-04T16:55:47.769Z,100796.00
2022-12-04T16:58:16.782Z,100796.00
2022-12-04T17:00:50.841Z,100795.06
2022-12-04T17:03:23.115Z,100798.69
2022-12-04T17:05:51.274Z,100792.75
2022-12-04T17:08:19.651Z,100790.19
2022-12-04T17:10:48.036Z,100802.72
2022-12-04T17:13:18.484Z,100790.34
2022-12-04T17:15:48.219Z,100793.88
2022-12-04T17:18:21.101Z,100797.53
2022-12-04T17:20:49.646Z,100801.16
2022-12-04T17:23:17.917Z,100803.84
2022-12-04T17:25:46.086Z,100811.00
2022-12-04T17:28:14.165Z,100806.72
2022-12-04T17:30:47.684Z,100810.34
2022-12-04T17:33:16.325Z,100811.31
2022-12-04T17:35:44.857Z,100815.59
2022-12-04T17:38:12.940Z,100813.78
2022-12-04T17:40:41.082Z,100813.69
2022-12-04T17:43:09.191Z,100811.19
2022-12-04T17:45:41.136Z,100813.97
2022-12-04T17:48:10.540Z,100818.47
2022-12-04T17:50:38.610Z,100819.34
2022-12-04T17:53:07.125Z,100817.63
2022-12-04T17:55:35.288Z,100813.97
2022-12-04T17:58:03.727Z,100817.63
2022-12-04T18:00:32.020Z,100813.97
2022-12-04T18:03:00.137Z,100807.66
2022-12-04T18:05:31.631Z,100813.03
2022-12-04T18:08:00.066Z,100811.19
2022-12-04T18:10:28.500Z,100809.47
2022-12-04T18:12:56.643Z,100809.47
2022-12-04T18:15:25.075Z,100817.63
2022-12-04T18:17:53.304Z,100821.25
2022-12-04T18:20:21.370Z,100821.25
2022-12-04T18:22:50.844Z,100821.06
2022-12-04T18:25:19.435Z,100821.00
2022-12-04T18:27:47.577Z,100825.09
2022-12-04T18:30:15.973Z,100823.16
2022-12-04T18:32:45.235Z,100827.75
2022-12-04T18:35:13.379Z,100832.38
2022-12-04T18:37:41.493Z,100831.59
2022-12-04T18:40:11.823Z,100830.75
2022-12-04T18:42:39.939Z,100833.50
2022-12-04T18:45:09.298Z,100838.94
2022-12-04T18:47:37.459Z,100838.28
2022-12-04T18:50:06.469Z,100840.19
2022-12-04T18:52:36.946Z,100840.19
2022-12-04T18:55:05.412Z,100833.97
2022-12-04T18:57:34.929Z,100836.56
2022-12-04T19:00:03.963Z,100831.00
2022-12-04T19:02:32.785Z,100832.56
2022-12-04T19:05:01.200Z,100828.94
2022-12-04T19:07:29.552Z,100829.88
2022-12-04T19:10:13.248Z,100825.44
2022-12-04T19:12:42.631Z,100829.94
2022-12-04T19:15:11.572Z,100838.84
2022-12-04T19:17:39.741Z,100829.94
2022-12-04T19:20:09.450Z,100831.78
2022-12-04T19:22:38.122Z,100833.69
2022-12-04T19:25:07.661Z,100833.78
2022-12-04T19:27:35.773Z,100834.66
2022-12-04T19:30:06.277Z,100838.28
2022-12-04T19:32:34.833Z,100832.06
2022-12-04T19:35:02.998Z,100838.47
2022-12-04T19:37:31.339Z,100836.56
2022-12-04T19:39:59.659Z,100834.84
2022-12-04T19:42:31.411Z,100837.69
2022-12-04T19:44:59.486Z,100833.28
2022-12-04T19:47:28.872Z,100836.91
2022-12-04T19:49:57.118Z,100828.13
2022-12-04T19:52:25.451Z,100835.28
2022-12-04T19:54:53.906Z,100834.34
2022-12-04T19:57:22.021Z,100837.13
2022-12-04T19:59:50.039Z,100842.47
2022-12-04T20:02:19.809Z,100839.03
2022-12-04T20:04:49.339Z,100838.16
2022-12-04T20:07:18.018Z,100839.88
2022-12-04T20:09:51.934Z,100838.47
2022-12-04T20:12:20.935Z,100835.75
2022-12-04T20:14:48.977Z,100841.03
2022-12-04T20:17:17.362Z,100840.25
2022-12-04T20:19:45.524Z,100843.69
2022-12-04T20:22:14.968Z,100845.63
2022-12-04T20:24:43.167Z,100847.66
2022-12-04T20:27:11.346Z,100843.28
2022-12-04T20:29:39.528Z,100848.63
2022-12-04T20:32:07.583Z,100854.09
2022-12-04T20:34:43.085Z,100855.91
2022-12-04T20:37:12.045Z,100855.91
2022-12-04T20:39:41.887Z,100860.91
2022-12-04T20:42:10.012Z,100862.84
2022-12-04T20:44:38.127Z,100864.38
2022-12-04T20:47:06.267Z,100868.66
2022-12-04T20:49:34.319Z,100865.50
2022-12-04T20:52:02.459Z,100868.75
2022-12-04T20:54:30.534Z,100870.66
2022-12-04T20:56:59.958Z,100871.63
2022-12-04T20:59:28.352Z,100868.28
2022-12-04T21:01:56.600Z,100873.00
2022-12-04T21:04:24.698Z,100867.16
2022-12-04T21:06:52.928Z,100877.38
2022-12-04T21:09:33.498Z,100867.06
2022-12-04T21:12:03.052Z,100865.50
2022-12-04T21:14:51.362Z,100859.59
2022-12-04T21:17:21.208Z,100863.50
2022-12-04T21:19:51.552Z,100859.22
2022-12-04T21:22:20.298Z,100861.13
2022-12-04T21:24:48.491Z,100864.75
2022-12-04T21:27:21.144Z,100861.41
2022-12-04T21:29:50.096Z,100863.41
2022-12-04T21:32:19.084Z,100858.22
2022-12-04T21:34:47.184Z,100857.38
2022-12-04T21:37:15.543Z,100862.88
2022-12-04T21:39:44.349Z,100864.81
2022-12-04T21:42:35.143Z,100868.59
2022-12-04T21:45:07.678Z,100868.69
2022-12-04T21:47:37.245Z,100869.75
2022-12-04T21:50:06.551Z,100872.53
2022-12-04T21:52:34.729Z,100867.28
2022-12-04T21:55:02.886Z,100862.03
2022-12-04T21:57:30.926Z,100863.91
2022-12-04T21:59:59.233Z,100863.13
2022-12-04T22:02:28.993Z,100875.97
2022-12-04T22:04:57.135Z,100872.50
2022-12-04T22:07:25.222Z,100874.22
2022-12-04T22:09:53.363Z,100882.34
2022-12-04T22:15:10.265Z,100876.31
2022-12-04T22:17:39.747Z,100875.47
2022-12-04T22:20:09.104Z,100867.69
2022-12-04T22:22:37.225Z,100875.81
2022-12-04T22:25:05.609Z,100877.63
2022-12-04T22:27:33.709Z,100874.19
2022-12-04T22:30:02.474Z,100876.88
2022-12-04T22:32:32.471Z,100868.84
2022-12-04T22:35:01.887Z,100864.44
2022-12-04T22:37:29.984Z,100863.66
2022-12-04T22:39:58.447Z,100864.63
2022-12-04T22:42:26.829Z,100862.88
2022-12-04T22:44:54.919Z,100867.47
2022-12-04T22:47:22.985Z,100867.47
2022-12-04T22:49:51.172Z,100865.66
2022-12-04T22:52:20.590Z,100854.28
2022-12-04T22:54:51.040Z,100860.59
2022-12-04T22:57:19.491Z,100859.63
2022-12-04T22:59:47.639Z,100856.34
2022-12-04T23:02:15.763Z,100871.53
2022-12-04T23:04:44.143Z,100871.53
2022-12-04T23:07:12.256Z,100870.69
2022-12-04T23:09:41.760Z,100869.06
2022-12-04T23:12:10.222Z,100867.25
2022-12-04T23:14:38.326Z,100863.81
2022-12-04T23:17:06.383Z,100862.94
2022-12-04T23:19:34.613Z,100854.16
2022-12-04T23:22:02.700Z,100864.00
2022-12-04T23:24:30.867Z,100858.63
2022-12-04T23:27:00.344Z,100850.69
2022-12-04T23:32:16.484Z,100851.72
2022-12-04T23:34:44.569Z,100849.06
2022-12-04T23:37:12.608Z,100854.50
2022-12-04T23:39:40.760Z,100846.56
2022-12-04T23:42:11.166Z,100850.28
2022-12-04T23:44:39.231Z,100855.69
2022-12-04T23:47:07.338Z,100858.38
2022-12-04T23:49:35.512Z,100864.69
2022-12-04T23:52:03.850Z,100868.31
2022-12-04T23:54:35.032Z,100862.00
2022-12-04T23:57:03.444Z,100862.97
2022-12-04T23:59:32.937Z,100868.31
